sensor_id;sensor_type;location;lat;lon;timestamp;temperature;humidity
27026;DHT22;14565;48.626;8.978;2023-05-18T00:02:05;4.00;99.90
27026;DHT22;14565;48.626;8.978;2023-05-18T00:04:32;4.10;99.90
27026;DHT22;14565;48.626;8.978;2023-05-18T00:06:59;3.90;99.90
27026;DHT22;14565;48.626;8.978;2023-05-18T00:09:33;3.90;99.90
27026;DHT22;14565;48.626;8.978;2023-05-18T00:12:00;3.90;99.90
27026;DHT22;14565;48.626;8.978;2023-05-18T00:14:26;4.00;99.90
27026;DHT22;14565;48.626;8.978;2023-05-18T00:16:53;3.90;99.90
27026;DHT22;14565;48.626;8.978;2023-05-18T00:19:20;4.00;99.90
27026;DHT22;14565;48.626;8.978;2023-05-18T00:21:47;4.00;99.90
27026;DHT22;14565;48.626;8.978;2023-05-18T00:24:14;3.90;99.90
27026;DHT22;14565;48.626;8.978;2023-05-18T00:26:45;4.00;99.90
27026;DHT22;14565;48.626;8.978;2023-05-18T00:29:11;4.10;99.90
27026;DHT22;14565;48.626;8.978;2023-05-18T00:31:38;3.90;99.90
27026;DHT22;14565;48.626;8.978;2023-05-18T00:34:11;4.00;99.90
27026;DHT22;14565;48.626;8.978;2023-05-18T00:36:40;4.10;99.90
27026;DHT22;14565;48.626;8.978;2023-05-18T00:39:09;3.80;99.90
27026;DHT22;14565;48.626;8.978;2023-05-18T00:41:39;3.50;99.90
27026;DHT22;14565;48.626;8.978;2023-05-18T00:44:05;3.60;99.90
27026;DHT22;14565;48.626;8.978;2023-05-18T00:46:31;3.60;99.90
27026;DHT22;14565;48.626;8.978;2023-05-18T00:48:58;3.60;99.90
27026;DHT22;14565;48.626;8.978;2023-05-18T00:51:26;3.60;99.90
27026;DHT22;14565;48.626;8.978;2023-05-18T00:53:53;3.70;99.90
27026;DHT22;14565;48.626;8.978;2023-05-18T00:56:20;3.70;99.90
27026;DHT22;14565;48.626;8.978;2023-05-18T00:58:53;3.70;99.90
27026;DHT22;14565;48.626;8.978;2023-05-18T01:01:28;3.80;99.90
27026;DHT22;14565;48.626;8.978;2023-05-18T01:03:56;3.80;99.90
27026;DHT22;14565;48.626;8.978;2023-05-18T01:06:22;3.90;99.90
27026;DHT22;14565;48.626;8.978;2023-05-18T01:08:53;3.90;99.90
27026;DHT22;14565;48.626;8.978;2023-05-18T01:11:31;3.90;99.90
27026;DHT22;14565;48.626;8.978;2023-05-18T01:16:34;4.00;99.90
27026;DHT22;14565;48.626;8.978;2023-05-18T01:25:09;3.80;99.90
27026;DHT22;14565;48.626;8.978;2023-05-18T01:27:40;3.70;99.90
27026;DHT22;14565;48.626;8.978;2023-05-18T01:30:15;3.80;99.90
27026;DHT22;14565;48.626;8.978;2023-05-18T01:32:44;3.80;99.90
27026;DHT22;14565;48.626;8.978;2023-05-18T01:35:11;3.80;99.90
27026;DHT22;14565;48.626;8.978;2023-05-18T01:37:36;3.80;99.90
27026;DHT22;14565;48.626;8.978;2023-05-18T01:40:03;3.80;99.90
27026;DHT22;14565;48.626;8.978;2023-05-18T01:42:33;3.70;99.90
27026;DHT22;14565;48.626;8.978;2023-05-18T01:45:07;3.60;99.90
27026;DHT22;14565;48.626;8.978;2023-05-18T01:47:35;3.70;99.90
27026;DHT22;14565;48.626;8.978;2023-05-18T01:50:11;3.70;99.90
27026;DHT22;14565;48.626;8.978;2023-05-18T01:53:03;3.50;99.90
27026;DHT22;14565;48.626;8.978;2023-05-18T01:55:32;3.60;99.90
27026;DHT22;14565;48.626;8.978;2023-05-18T01:57:59;3.90;99.90
27026;DHT22;14565;48.626;8.978;2023-05-18T02:00:27;3.60;99.90
27026;DHT22;14565;48.626;8.978;2023-05-18T02:02:53;3.20;99.90
27026;DHT22;14565;48.626;8.978;2023-05-18T02:05:18;3.00;99.90
27026;DHT22;14565;48.626;8.978;2023-05-18T02:07:44;3.10;99.90
27026;DHT22;14565;48.626;8.978;2023-05-18T02:10:12;3.20;99.90
27026;DHT22;14565;48.626;8.978;2023-05-18T02:12:38;3.30;99.90
27026;DHT22;14565;48.626;8.978;2023-05-18T02:15:04;3.40;99.90
27026;DHT22;14565;48.626;8.978;2023-05-18T02:17:34;3.30;99.90
27026;DHT22;14565;48.626;8.978;2023-05-18T02:20:03;3.20;99.90
27026;DHT22;14565;48.626;8.978;2023-05-18T02:22:33;3.30;99.90
27026;DHT22;14565;48.626;8.978;2023-05-18T02:24:58;3.30;99.90
27026;DHT22;14565;48.626;8.978;2023-05-18T02:27:24;3.20;99.90
27026;DHT22;14565;48.626;8.978;2023-05-18T02:29:51;3.10;99.90
27026;DHT22;14565;48.626;8.978;2023-05-18T02:32:17;3.20;99.90
27026;DHT22;14565;48.626;8.978;2023-05-18T02:34:43;3.20;99.90
27026;DHT22;14565;48.626;8.978;2023-05-18T02:37:11;3.10;99.90
27026;DHT22;14565;48.626;8.978;2023-05-18T02:39:38;3.10;99.90
27026;DHT22;14565;48.626;8.978;2023-05-18T02:42:04;3.00;99.90
27026;DHT22;14565;48.626;8.978;2023-05-18T02:44:30;3.00;99.90
27026;DHT22;14565;48.626;8.978;2023-05-18T02:46:56;3.10;99.90
27026;DHT22;14565;48.626;8.978;2023-05-18T02:49:22;3.20;99.90
27026;DHT22;14565;48.626;8.978;2023-05-18T02:51:47;3.10;99.90
27026;DHT22;14565;48.626;8.978;2023-05-18T02:54:13;3.00;99.90
27026;DHT22;14565;48.626;8.978;2023-05-18T02:56:39;3.10;99.90
27026;DHT22;14565;48.626;8.978;2023-05-18T02:59:07;3.10;99.90
27026;DHT22;14565;48.626;8.978;2023-05-18T03:01:33;2.90;99.90
27026;DHT22;14565;48.626;8.978;2023-05-18T03:04:01;3.00;99.90
27026;DHT22;14565;48.626;8.978;2023-05-18T03:06:28;3.00;99.90
27026;DHT22;14565;48.626;8.978;2023-05-18T03:08:55;2.90;99.90
27026;DHT22;14565;48.626;8.978;2023-05-18T03:11:22;3.00;99.90
27026;DHT22;14565;48.626;8.978;2023-05-18T03:13:48;3.00;99.90
27026;DHT22;14565;48.626;8.978;2023-05-18T03:16:14;3.00;99.90
27026;DHT22;14565;48.626;8.978;2023-05-18T03:18:40;3.00;99.90
27026;DHT22;14565;48.626;8.978;2023-05-18T03:21:06;3.00;99.90
27026;DHT22;14565;48.626;8.978;2023-05-18T03:23:33;3.00;99.90
27026;DHT22;14565;48.626;8.978;2023-05-18T03:25:58;3.00;99.90
27026;DHT22;14565;48.626;8.978;2023-05-18T03:28:27;3.00;99.90
27026;DHT22;14565;48.626;8.978;2023-05-18T03:30:53;2.90;99.90
27026;DHT22;14565;48.626;8.978;2023-05-18T03:33:19;3.00;99.90
27026;DHT22;14565;48.626;8.978;2023-05-18T03:35:45;2.90;99.90
27026;DHT22;14565;48.626;8.978;2023-05-18T03:38:11;2.90;99.90
27026;DHT22;14565;48.626;8.978;2023-05-18T03:40:37;2.90;99.90
27026;DHT22;14565;48.626;8.978;2023-05-18T03:43:03;2.90;99.90
27026;DHT22;14565;48.626;8.978;2023-05-18T03:45:29;2.90;99.90
27026;DHT22;14565;48.626;8.978;2023-05-18T03:47:57;3.00;99.90
27026;DHT22;14565;48.626;8.978;2023-05-18T03:50:23;2.90;99.90
27026;DHT22;14565;48.626;8.978;2023-05-18T03:52:49;3.00;99.90
27026;DHT22;14565;48.626;8.978;2023-05-18T03:55:18;3.00;99.90
27026;DHT22;14565;48.626;8.978;2023-05-18T03:57:46;3.00;99.90
27026;DHT22;14565;48.626;8.978;2023-05-18T04:00:12;3.00;99.90
27026;DHT22;14565;48.626;8.978;2023-05-18T04:02:38;3.10;99.90
27026;DHT22;14565;48.626;8.978;2023-05-18T04:05:07;3.10;99.90
27026;DHT22;14565;48.626;8.978;2023-05-18T04:07:34;3.10;99.90
27026;DHT22;14565;48.626;8.978;2023-05-18T04:10:09;3.10;99.90
27026;DHT22;14565;48.626;8.978;2023-05-18T04:12:35;3.20;99.90
27026;DHT22;14565;48.626;8.978;2023-05-18T04:15:00;3.20;99.90
27026;DHT22;14565;48.626;8.978;2023-05-18T04:17:28;3.20;99.90
27026;DHT22;14565;48.626;8.978;2023-05-18T04:19:54;3.30;99.90
27026;DHT22;14565;48.626;8.978;2023-05-18T04:22:21;3.50;99.90
27026;DHT22;14565;48.626;8.978;2023-05-18T04:24:47;3.40;99.90
27026;DHT22;14565;48.626;8.978;2023-05-18T04:27:13;3.60;99.90
27026;DHT22;14565;48.626;8.978;2023-05-18T04:29:39;3.60;99.90
27026;DHT22;14565;48.626;8.978;2023-05-18T04:32:08;3.70;99.90
27026;DHT22;14565;48.626;8.978;2023-05-18T04:34:36;3.70;99.90
27026;DHT22;14565;48.626;8.978;2023-05-18T04:37:04;3.80;99.90
27026;DHT22;14565;48.626;8.978;2023-05-18T04:39:31;3.90;99.90
27026;DHT22;14565;48.626;8.978;2023-05-18T04:41:57;4.10;99.90
27026;DHT22;14565;48.626;8.978;2023-05-18T04:44:24;4.10;99.90
27026;DHT22;14565;48.626;8.978;2023-05-18T04:46:52;4.20;99.90
27026;DHT22;14565;48.626;8.978;2023-05-18T04:49:18;4.30;99.90
27026;DHT22;14565;48.626;8.978;2023-05-18T04:51:53;4.30;99.90
27026;DHT22;14565;48.626;8.978;2023-05-18T04:54:27;4.30;99.90
27026;DHT22;14565;48.626;8.978;2023-05-18T04:56:57;4.70;99.90
27026;DHT22;14565;48.626;8.978;2023-05-18T04:59:24;4.70;99.90
27026;DHT22;14565;48.626;8.978;2023-05-18T05:01:51;4.90;99.90
27026;DHT22;14565;48.626;8.978;2023-05-18T05:04:18;4.90;99.90
27026;DHT22;14565;48.626;8.978;2023-05-18T05:06:43;5.00;99.90
27026;DHT22;14565;48.626;8.978;2023-05-18T05:09:09;5.00;99.90
27026;DHT22;14565;48.626;8.978;2023-05-18T05:11:38;5.40;99.90
27026;DHT22;14565;48.626;8.978;2023-05-18T05:14:04;5.60;99.90
27026;DHT22;14565;48.626;8.978;2023-05-18T05:16:29;5.60;99.90
27026;DHT22;14565;48.626;8.978;2023-05-18T05:18:55;5.70;99.90
27026;DHT22;14565;48.626;8.978;2023-05-18T05:21:21;5.70;99.90
27026;DHT22;14565;48.626;8.978;2023-05-18T05:23:47;5.80;99.90
27026;DHT22;14565;48.626;8.978;2023-05-18T05:26:12;5.50;99.90
27026;DHT22;14565;48.626;8.978;2023-05-18T05:28:38;5.40;99.90
27026;DHT22;14565;48.626;8.978;2023-05-18T05:31:05;5.30;99.90
27026;DHT22;14565;48.626;8.978;2023-05-18T05:33:30;5.40;99.90
27026;DHT22;14565;48.626;8.978;2023-05-18T05:35:56;5.50;99.90
27026;DHT22;14565;48.626;8.978;2023-05-18T05:38:22;6.10;99.90
27026;DHT22;14565;48.626;8.978;2023-05-18T05:40:48;6.20;99.90
27026;DHT22;14565;48.626;8.978;2023-05-18T05:43:13;6.60;99.90
27026;DHT22;14565;48.626;8.978;2023-05-18T05:45:39;7.30;99.90
27026;DHT22;14565;48.626;8.978;2023-05-18T05:48:07;7.40;99.90
27026;DHT22;14565;48.626;8.978;2023-05-18T05:50:33;8.70;99.90
27026;DHT22;14565;48.626;8.978;2023-05-18T05:52:58;8.90;99.90
27026;DHT22;14565;48.626;8.978;2023-05-18T05:55:27;9.60;99.90
27026;DHT22;14565;48.626;8.978;2023-05-18T05:57:53;10.00;99.90
27026;DHT22;14565;48.626;8.978;2023-05-18T06:00:19;10.70;99.90
27026;DHT22;14565;48.626;8.978;2023-05-18T06:02:48;10.50;99.90
27026;DHT22;14565;48.626;8.978;2023-05-18T06:05:14;9.80;99.90
27026;DHT22;14565;48.626;8.978;2023-05-18T06:07:40;10.30;99.90
27026;DHT22;14565;48.626;8.978;2023-05-18T06:10:06;10.30;99.90
27026;DHT22;14565;48.626;8.978;2023-05-18T06:12:33;10.70;99.90
27026;DHT22;14565;48.626;8.978;2023-05-18T06:15:04;11.00;99.90
27026;DHT22;14565;48.626;8.978;2023-05-18T06:17:30;11.50;99.90
27026;DHT22;14565;48.626;8.978;2023-05-18T06:19:56;10.30;99.90
27026;DHT22;14565;48.626;8.978;2023-05-18T06:22:25;10.80;99.90
27026;DHT22;14565;48.626;8.978;2023-05-18T06:24:50;11.30;99.90
27026;DHT22;14565;48.626;8.978;2023-05-18T06:27:17;11.70;99.90
27026;DHT22;14565;48.626;8.978;2023-05-18T06:29:46;11.30;99.90
27026;DHT22;14565;48.626;8.978;2023-05-18T06:32:12;11.70;99.90
27026;DHT22;14565;48.626;8.978;2023-05-18T06:34:38;11.00;99.90
27026;DHT22;14565;48.626;8.978;2023-05-18T06:37:04;11.00;99.90
27026;DHT22;14565;48.626;8.978;2023-05-18T06:39:31;12.30;99.90
27026;DHT22;14565;48.626;8.978;2023-05-18T06:41:59;11.90;99.90
27026;DHT22;14565;48.626;8.978;2023-05-18T06:44:28;12.40;99.90
27026;DHT22;14565;48.626;8.978;2023-05-18T06:46:56;11.60;99.90
27026;DHT22;14565;48.626;8.978;2023-05-18T06:49:22;12.30;99.90
27026;DHT22;14565;48.626;8.978;2023-05-18T06:51:48;12.40;99.90
27026;DHT22;14565;48.626;8.978;2023-05-18T06:54:13;13.00;99.90
27026;DHT22;14565;48.626;8.978;2023-05-18T06:56:39;14.80;99.90
27026;DHT22;14565;48.626;8.978;2023-05-18T06:59:06;12.70;99.90
27026;DHT22;14565;48.626;8.978;2023-05-18T07:01:31;12.00;99.90
27026;DHT22;14565;48.626;8.978;2023-05-18T07:03:58;12.50;99.90
27026;DHT22;14565;48.626;8.978;2023-05-18T07:06:27;12.60;99.90
27026;DHT22;14565;48.626;8.978;2023-05-18T07:08:55;12.20;99.90
27026;DHT22;14565;48.626;8.978;2023-05-18T07:11:21;12.30;99.90
27026;DHT22;14565;48.626;8.978;2023-05-18T07:13:47;12.30;99.90
27026;DHT22;14565;48.626;8.978;2023-05-18T07:16:15;13.10;99.90
27026;DHT22;14565;48.626;8.978;2023-05-18T07:18:41;12.90;99.90
27026;DHT22;14565;48.626;8.978;2023-05-18T07:21:07;12.40;99.90
27026;DHT22;14565;48.626;8.978;2023-05-18T07:23:33;12.70;99.90
27026;DHT22;14565;48.626;8.978;2023-05-18T07:26:01;12.90;99.90
27026;DHT22;14565;48.626;8.978;2023-05-18T07:28:30;12.90;99.90
27026;DHT22;14565;48.626;8.978;2023-05-18T07:30:56;12.50;99.90
27026;DHT22;14565;48.626;8.978;2023-05-18T07:33:24;13.70;99.90
27026;DHT22;14565;48.626;8.978;2023-05-18T07:35:50;13.90;99.90
27026;DHT22;14565;48.626;8.978;2023-05-18T07:38:16;14.20;99.90
27026;DHT22;14565;48.626;8.978;2023-05-18T07:40:42;14.90;99.90
27026;DHT22;14565;48.626;8.978;2023-05-18T07:43:07;14.20;99.90
27026;DHT22;14565;48.626;8.978;2023-05-18T07:45:33;13.40;99.90
27026;DHT22;14565;48.626;8.978;2023-05-18T07:47:59;13.20;99.90
27026;DHT22;14565;48.626;8.978;2023-05-18T07:50:25;12.80;99.90
27026;DHT22;14565;48.626;8.978;2023-05-18T07:52:51;13.10;99.90
27026;DHT22;14565;48.626;8.978;2023-05-18T07:55:20;12.90;99.90
27026;DHT22;14565;48.626;8.978;2023-05-18T07:57:46;12.80;99.90
27026;DHT22;14565;48.626;8.978;2023-05-18T08:00:12;12.80;99.90
27026;DHT22;14565;48.626;8.978;2023-05-18T08:02:38;12.60;99.90
27026;DHT22;14565;48.626;8.978;2023-05-18T08:05:04;12.70;99.90
27026;DHT22;14565;48.626;8.978;2023-05-18T08:07:31;12.20;99.90
27026;DHT22;14565;48.626;8.978;2023-05-18T08:09:57;12.50;99.90
27026;DHT22;14565;48.626;8.978;2023-05-18T08:12:23;12.60;99.90
27026;DHT22;14565;48.626;8.978;2023-05-18T08:14:49;12.30;99.90
27026;DHT22;14565;48.626;8.978;2023-05-18T08:17:15;12.80;99.90
27026;DHT22;14565;48.626;8.978;2023-05-18T08:19:42;12.70;99.90
27026;DHT22;14565;48.626;8.978;2023-05-18T08:22:08;13.00;99.90
27026;DHT22;14565;48.626;8.978;2023-05-18T08:24:34;12.90;99.90
27026;DHT22;14565;48.626;8.978;2023-05-18T08:27:00;13.30;99.90
27026;DHT22;14565;48.626;8.978;2023-05-18T08:29:27;12.90;99.90
27026;DHT22;14565;48.626;8.978;2023-05-18T08:31:53;12.80;99.90
27026;DHT22;14565;48.626;8.978;2023-05-18T08:34:19;13.20;99.90
27026;DHT22;14565;48.626;8.978;2023-05-18T08:36:44;13.20;99.90
27026;DHT22;14565;48.626;8.978;2023-05-18T08:39:11;13.20;99.90
27026;DHT22;14565;48.626;8.978;2023-05-18T08:41:52;13.00;99.90
27026;DHT22;14565;48.626;8.978;2023-05-18T08:44:39;13.20;99.90
27026;DHT22;14565;48.626;8.978;2023-05-18T08:47:09;13.00;99.90
27026;DHT22;14565;48.626;8.978;2023-05-18T08:49:35;12.90;99.90
27026;DHT22;14565;48.626;8.978;2023-05-18T08:52:03;13.30;99.90
27026;DHT22;14565;48.626;8.978;2023-05-18T08:54:30;13.40;99.90
27026;DHT22;14565;48.626;8.978;2023-05-18T08:56:58;13.30;99.90
27026;DHT22;14565;48.626;8.978;2023-05-18T08:59:26;13.70;99.90
27026;DHT22;14565;48.626;8.978;2023-05-18T09:01:52;13.80;99.90
27026;DHT22;14565;48.626;8.978;2023-05-18T09:04:22;13.70;99.90
27026;DHT22;14565;48.626;8.978;2023-05-18T09:06:48;13.90;99.90
27026;DHT22;14565;48.626;8.978;2023-05-18T09:09:17;13.60;99.90
27026;DHT22;14565;48.626;8.978;2023-05-18T09:11:43;14.10;99.90
27026;DHT22;14565;48.626;8.978;2023-05-18T09:14:11;14.20;99.90
27026;DHT22;14565;48.626;8.978;2023-05-18T09:16:37;14.60;99.90
27026;DHT22;14565;48.626;8.978;2023-05-18T09:19:03;14.90;99.90
27026;DHT22;14565;48.626;8.978;2023-05-18T09:21:31;14.70;99.90
27026;DHT22;14565;48.626;8.978;2023-05-18T09:23:59;14.30;99.90
27026;DHT22;14565;48.626;8.978;2023-05-18T09:26:28;14.70;99.90
27026;DHT22;14565;48.626;8.978;2023-05-18T09:28:54;15.20;99.90
27026;DHT22;14565;48.626;8.978;2023-05-18T09:31:21;15.30;99.90
27026;DHT22;14565;48.626;8.978;2023-05-18T09:33:49;14.80;99.90
27026;DHT22;14565;48.626;8.978;2023-05-18T09:36:23;14.30;99.90
27026;DHT22;14565;48.626;8.978;2023-05-18T09:38:51;14.80;99.90
27026;DHT22;14565;48.626;8.978;2023-05-18T09:41:20;15.00;99.90
27026;DHT22;14565;48.626;8.978;2023-05-18T09:43:49;15.00;99.90
27026;DHT22;14565;48.626;8.978;2023-05-18T09:46:20;14.80;99.90
27026;DHT22;14565;48.626;8.978;2023-05-18T09:48:50;14.60;99.90
27026;DHT22;14565;48.626;8.978;2023-05-18T09:51:16;14.30;99.90
27026;DHT22;14565;48.626;8.978;2023-05-18T09:56:30;14.10;99.90
27026;DHT22;14565;48.626;8.978;2023-05-18T09:58:57;14.60;99.90
27026;DHT22;14565;48.626;8.978;2023-05-18T10:01:23;14.60;99.90
27026;DHT22;14565;48.626;8.978;2023-05-18T10:03:49;14.90;99.90
27026;DHT22;14565;48.626;8.978;2023-05-18T10:06:14;13.90;99.90
27026;DHT22;14565;48.626;8.978;2023-05-18T10:08:44;13.90;99.90
27026;DHT22;14565;48.626;8.978;2023-05-18T10:11:10;14.00;99.90
27026;DHT22;14565;48.626;8.978;2023-05-18T10:13:36;14.40;99.90
27026;DHT22;14565;48.626;8.978;2023-05-18T10:16:04;14.50;99.90
27026;DHT22;14565;48.626;8.978;2023-05-18T10:18:33;14.70;99.90
27026;DHT22;14565;48.626;8.978;2023-05-18T10:21:01;14.20;99.90
27026;DHT22;14565;48.626;8.978;2023-05-18T10:23:29;14.40;99.90
27026;DHT22;14565;48.626;8.978;2023-05-18T10:25:56;14.80;99.90
27026;DHT22;14565;48.626;8.978;2023-05-18T10:28:26;15.00;99.90
27026;DHT22;14565;48.626;8.978;2023-05-18T10:30:57;15.20;99.90
27026;DHT22;14565;48.626;8.978;2023-05-18T10:33:26;15.00;99.90
27026;DHT22;14565;48.626;8.978;2023-05-18T10:35:52;15.00;99.90
27026;DHT22;14565;48.626;8.978;2023-05-18T10:38:24;15.00;99.90
27026;DHT22;14565;48.626;8.978;2023-05-18T10:40:53;14.70;99.90
27026;DHT22;14565;48.626;8.978;2023-05-18T10:43:21;15.00;99.90
27026;DHT22;14565;48.626;8.978;2023-05-18T10:45:56;15.30;99.90
27026;DHT22;14565;48.626;8.978;2023-05-18T10:48:23;15.00;99.90
27026;DHT22;14565;48.626;8.978;2023-05-18T10:50:50;14.80;99.90
27026;DHT22;14565;48.626;8.978;2023-05-18T10:53:17;14.80;99.90
27026;DHT22;14565;48.626;8.978;2023-05-18T10:55:44;14.80;99.90
27026;DHT22;14565;48.626;8.978;2023-05-18T10:58:12;14.90;99.90
27026;DHT22;14565;48.626;8.978;2023-05-18T11:00:43;15.00;99.90
27026;DHT22;14565;48.626;8.978;2023-05-18T11:03:10;15.20;99.90
27026;DHT22;14565;48.626;8.978;2023-05-18T11:05:40;15.40;99.90
27026;DHT22;14565;48.626;8.978;2023-05-18T11:08:07;15.50;99.90
27026;DHT22;14565;48.626;8.978;2023-05-18T11:10:43;15.70;99.90
27026;DHT22;14565;48.626;8.978;2023-05-18T11:13:13;16.00;99.90
27026;DHT22;14565;48.626;8.978;2023-05-18T11:18:35;16.20;99.90
27026;DHT22;14565;48.626;8.978;2023-05-18T11:21:02;16.20;99.90
27026;DHT22;14565;48.626;8.978;2023-05-18T11:23:31;16.10;99.90
27026;DHT22;14565;48.626;8.978;2023-05-18T11:25:59;15.30;99.90
27026;DHT22;14565;48.626;8.978;2023-05-18T11:28:29;15.20;99.90
27026;DHT22;14565;48.626;8.978;2023-05-18T11:30:55;15.40;99.90
27026;DHT22;14565;48.626;8.978;2023-05-18T11:33:26;15.50;99.40
27026;DHT22;14565;48.626;8.978;2023-05-18T11:39:03;15.70;99.90
27026;DHT22;14565;48.626;8.978;2023-05-18T11:41:38;15.70;99.30
27026;DHT22;14565;48.626;8.978;2023-05-18T11:47:01;16.10;99.90
27026;DHT22;14565;48.626;8.978;2023-05-18T11:52:17;15.70;99.70
27026;DHT22;14565;48.626;8.978;2023-05-18T11:57:22;16.30;99.90
27026;DHT22;14565;48.626;8.978;2023-05-18T11:59:55;16.20;98.90
27026;DHT22;14565;48.626;8.978;2023-05-18T12:02:32;16.10;98.90
27026;DHT22;14565;48.626;8.978;2023-05-18T12:04:59;16.00;98.90
27026;DHT22;14565;48.626;8.978;2023-05-18T12:07:26;15.80;98.90
27026;DHT22;14565;48.626;8.978;2023-05-18T12:10:02;15.90;99.70
27026;DHT22;14565;48.626;8.978;2023-05-18T12:12:32;16.00;98.80
27026;DHT22;14565;48.626;8.978;2023-05-18T12:18:08;16.00;98.80
27026;DHT22;14565;48.626;8.978;2023-05-18T12:20:33;16.40;98.80
27026;DHT22;14565;48.626;8.978;2023-05-18T12:23:03;16.10;98.70
27026;DHT22;14565;48.626;8.978;2023-05-18T12:25:29;15.90;99.40
27026;DHT22;14565;48.626;8.978;2023-05-18T12:27:55;16.10;99.90
27026;DHT22;14565;48.626;8.978;2023-05-18T12:30:27;16.10;99.80
27026;DHT22;14565;48.626;8.978;2023-05-18T12:33:00;16.50;98.00
27026;DHT22;14565;48.626;8.978;2023-05-18T12:35:28;16.80;98.00
27026;DHT22;14565;48.626;8.978;2023-05-18T12:37:55;16.10;97.70
27026;DHT22;14565;48.626;8.978;2023-05-18T12:40:22;15.80;98.70
27026;DHT22;14565;48.626;8.978;2023-05-18T12:42:58;15.80;99.30
27026;DHT22;14565;48.626;8.978;2023-05-18T12:45:27;15.90;98.70
27026;DHT22;14565;48.626;8.978;2023-05-18T12:51:23;16.60;97.80
27026;DHT22;14565;48.626;8.978;2023-05-18T12:53:57;16.40;97.70
27026;DHT22;14565;48.626;8.978;2023-05-18T12:56:48;16.40;97.80
27026;DHT22;14565;48.626;8.978;2023-05-18T13:03:06;16.60;99.30
27026;DHT22;14565;48.626;8.978;2023-05-18T13:06:03;16.40;97.00
27026;DHT22;14565;48.626;8.978;2023-05-18T13:08:44;16.60;97.20
27026;DHT22;14565;48.626;8.978;2023-05-18T13:11:16;16.80;96.90
27026;DHT22;14565;48.626;8.978;2023-05-18T13:14:22;16.80;96.70
27026;DHT22;14565;48.626;8.978;2023-05-18T13:20:15;16.40;97.40
27026;DHT22;14565;48.626;8.978;2023-05-18T13:22:44;16.20;97.40
27026;DHT22;14565;48.626;8.978;2023-05-18T13:25:14;16.40;97.00
27026;DHT22;14565;48.626;8.978;2023-05-18T13:31:26;16.50;99.00
27026;DHT22;14565;48.626;8.978;2023-05-18T13:34:04;16.60;97.90
27026;DHT22;14565;48.626;8.978;2023-05-18T13:36:30;16.30;98.10
27026;DHT22;14565;48.626;8.978;2023-05-18T13:39:00;16.50;98.50
27026;DHT22;14565;48.626;8.978;2023-05-18T13:41:30;16.90;99.10
27026;DHT22;14565;48.626;8.978;2023-05-18T13:43:58;17.00;96.50
27026;DHT22;14565;48.626;8.978;2023-05-18T13:46:23;16.70;98.20
27026;DHT22;14565;48.626;8.978;2023-05-18T13:48:53;16.30;97.20
27026;DHT22;14565;48.626;8.978;2023-05-18T13:51:19;15.70;97.50
27026;DHT22;14565;48.626;8.978;2023-05-18T13:54:14;15.80;98.50
27026;DHT22;14565;48.626;8.978;2023-05-18T13:57:46;16.20;97.30
27026;DHT22;14565;48.626;8.978;2023-05-18T14:00:12;16.50;99.00
27026;DHT22;14565;48.626;8.978;2023-05-18T14:02:45;16.10;99.10
27026;DHT22;14565;48.626;8.978;2023-05-18T14:05:18;15.90;98.80
27026;DHT22;14565;48.626;8.978;2023-05-18T14:07:47;15.90;98.40
27026;DHT22;14565;48.626;8.978;2023-05-18T14:10:13;15.90;98.40
27026;DHT22;14565;48.626;8.978;2023-05-18T14:12:40;16.30;98.60
27026;DHT22;14565;48.626;8.978;2023-05-18T14:15:07;16.10;99.00
27026;DHT22;14565;48.626;8.978;2023-05-18T14:17:33;16.10;99.20
27026;DHT22;14565;48.626;8.978;2023-05-18T14:19:59;16.20;98.80
27026;DHT22;14565;48.626;8.978;2023-05-18T14:22:25;16.40;98.10
27026;DHT22;14565;48.626;8.978;2023-05-18T14:24:57;16.20;98.90
27026;DHT22;14565;48.626;8.978;2023-05-18T14:27:23;16.30;97.00
27026;DHT22;14565;48.626;8.978;2023-05-18T14:29:50;16.50;97.70
27026;DHT22;14565;48.626;8.978;2023-05-18T14:32:19;16.60;97.00
27026;DHT22;14565;48.626;8.978;2023-05-18T14:34:48;16.60;98.00
27026;DHT22;14565;48.626;8.978;2023-05-18T14:37:17;16.40;97.70
27026;DHT22;14565;48.626;8.978;2023-05-18T14:39:45;16.60;99.30
27026;DHT22;14565;48.626;8.978;2023-05-18T14:42:20;16.10;97.50
27026;DHT22;14565;48.626;8.978;2023-05-18T14:44:52;16.10;99.20
27026;DHT22;14565;48.626;8.978;2023-05-18T14:47:18;16.40;98.50
27026;DHT22;14565;48.626;8.978;2023-05-18T14:49:52;16.30;99.20
27026;DHT22;14565;48.626;8.978;2023-05-18T14:52:22;16.10;98.00
27026;DHT22;14565;48.626;8.978;2023-05-18T14:54:54;15.90;99.00
27026;DHT22;14565;48.626;8.978;2023-05-18T14:57:38;15.80;99.90
27026;DHT22;14565;48.626;8.978;2023-05-18T15:00:20;15.60;98.20
27026;DHT22;14565;48.626;8.978;2023-05-18T15:03:08;15.70;97.70
27026;DHT22;14565;48.626;8.978;2023-05-18T15:05:35;15.60;97.30
27026;DHT22;14565;48.626;8.978;2023-05-18T15:08:03;15.70;97.80
27026;DHT22;14565;48.626;8.978;2023-05-18T15:10:28;15.70;97.40
27026;DHT22;14565;48.626;8.978;2023-05-18T15:12:54;15.80;97.80
27026;DHT22;14565;48.626;8.978;2023-05-18T15:15:20;16.00;98.60
27026;DHT22;14565;48.626;8.978;2023-05-18T15:17:46;15.90;99.90
27026;DHT22;14565;48.626;8.978;2023-05-18T15:20:12;15.70;98.80
27026;DHT22;14565;48.626;8.978;2023-05-18T15:22:38;15.70;98.40
27026;DHT22;14565;48.626;8.978;2023-05-18T15:25:06;15.70;99.10
27026;DHT22;14565;48.626;8.978;2023-05-18T15:27:33;15.70;98.10
27026;DHT22;14565;48.626;8.978;2023-05-18T15:30:00;15.50;97.70
27026;DHT22;14565;48.626;8.978;2023-05-18T15:32:26;15.50;98.80
27026;DHT22;14565;48.626;8.978;2023-05-18T15:34:51;15.70;99.50
27026;DHT22;14565;48.626;8.978;2023-05-18T15:37:18;15.60;99.30
27026;DHT22;14565;48.626;8.978;2023-05-18T15:39:44;15.80;99.90
27026;DHT22;14565;48.626;8.978;2023-05-18T15:42:10;15.90;98.90
27026;DHT22;14565;48.626;8.978;2023-05-18T15:44:36;15.80;99.40
27026;DHT22;14565;48.626;8.978;2023-05-18T15:47:03;15.50;99.30
27026;DHT22;14565;48.626;8.978;2023-05-18T15:49:29;15.60;99.80
27026;DHT22;14565;48.626;8.978;2023-05-18T15:51:55;15.50;99.80
27026;DHT22;14565;48.626;8.978;2023-05-18T15:54:21;15.60;99.00
27026;DHT22;14565;48.626;8.978;2023-05-18T15:56:47;15.60;99.20
27026;DHT22;14565;48.626;8.978;2023-05-18T15:59:13;15.60;99.90
27026;DHT22;14565;48.626;8.978;2023-05-18T16:01:39;15.30;99.20
27026;DHT22;14565;48.626;8.978;2023-05-18T16:04:04;15.10;99.80
27026;DHT22;14565;48.626;8.978;2023-05-18T16:06:32;14.90;99.90
27026;DHT22;14565;48.626;8.978;2023-05-18T16:08:57;14.80;99.90
27026;DHT22;14565;48.626;8.978;2023-05-18T16:11:23;14.90;99.90
27026;DHT22;14565;48.626;8.978;2023-05-18T16:13:49;15.00;99.90
27026;DHT22;14565;48.626;8.978;2023-05-18T16:16:17;14.80;99.90
27026;DHT22;14565;48.626;8.978;2023-05-18T16:18:44;14.70;99.90
27026;DHT22;14565;48.626;8.978;2023-05-18T16:21:10;14.60;99.90
27026;DHT22;14565;48.626;8.978;2023-05-18T16:23:36;14.60;99.90
27026;DHT22;14565;48.626;8.978;2023-05-18T16:26:01;14.60;99.90
27026;DHT22;14565;48.626;8.978;2023-05-18T16:28:30;14.60;99.90